createdAt,value
2019-05-22T05:00:52.300Z,99.90
2019-05-22T05:03:34.627Z,99.90
2019-05-22T05:06:09.878Z,99.90
2019-05-22T05:08:50.645Z,99.90
2019-05-22T05:14:09.846Z,99.90
2019-05-22T05:16:45.057Z,99.90
2019-05-22T05:19:33.725Z,99.90
2019-05-22T05:21:55.534Z,99.90
2019-05-22T05:24:26.267Z,99.90
2019-05-22T05:27:08.426Z,99.90
2019-05-22T05:29:38.787Z,99.90
2019-05-22T05:32:22.556Z,99.90
2019-05-22T05:35:01.369Z,99.90
2019-05-22T05:40:33.661Z,99.90
2019-05-22T05:43:23.659Z,99.90
2019-05-22T05:46:43.779Z,99.90
2019-05-22T05:48:30.194Z,99.90
2019-05-22T05:51:58.447Z,99.90
2019-05-22T05:54:22.825Z,99.90
2019-05-22T05:58:03.460Z,99.90
2019-05-22T06:06:24.888Z,99.90
2019-05-22T06:10:03.850Z,99.90
2019-05-22T06:24:42.690Z,99.90
2019-05-22T06:24:57.878Z,99.90
2019-05-22T06:26:57.470Z,99.90
2019-05-22T06:35:51.933Z,99.90
2019-05-22T06:39:50.176Z,99.90
2019-05-22T06:41:48.365Z,99.90
2019-05-22T06:44:40.570Z,99.90
2019-05-22T06:47:14.099Z,99.90
2019-05-22T06:49:44.562Z,99.90
2019-05-22T06:52:13.814Z,99.90
2019-05-22T06:54:47.309Z,99.90
2019-05-22T06:57:22.696Z,99.90
2019-05-22T07:00:11.621Z,99.90
2019-05-22T07:02:23.689Z,99.90
2019-05-22T07:04:53.136Z,99.90
2019-05-22T07:07:23.803Z,99.90
2019-05-22T07:09:55.310Z,99.90
2019-05-22T07:12:33.201Z,99.90
2019-05-22T07:15:11.011Z,99.90
2019-05-22T07:17:42.436Z,99.90
2019-05-22T07:20:11.863Z,99.90
2019-05-22T07:22:42.396Z,99.90
2019-05-22T07:25:12.328Z,99.90
2019-05-22T07:27:41.235Z,99.90
2019-05-22T07:30:11.864Z,99.90
2019-05-22T07:32:42.910Z,99.90
2019-05-22T07:35:13.830Z,99.90
2019-05-22T07:37:48.831Z,99.90
2019-05-22T07:40:19.748Z,99.90
2019-05-22T07:42:51.283Z,99.90
2019-05-22T07:45:22.304Z,99.90
2019-05-22T07:47:52.333Z,99.90
2019-05-22T07:50:22.913Z,99.90
2019-05-22T07:52:52.613Z,99.90
2019-05-22T07:55:23.015Z,99.90
2019-05-22T07:58:03.487Z,99.90
2019-05-22T08:00:36.059Z,99.90
2019-05-22T08:03:06.010Z,99.90
2019-05-22T08:05:39.701Z,99.90
2019-05-22T08:08:11.932Z,99.90
2019-05-22T08:10:42.136Z,99.90
2019-05-22T08:13:18.579Z,99.90
2019-05-22T08:15:47.670Z,99.90
2019-05-22T08:18:17.180Z,99.90
2019-05-22T08:20:51.724Z,99.90
2019-05-22T08:23:22.230Z,99.90
2019-05-22T08:25:51.955Z,99.90
2019-05-22T08:37:00.284Z,99.90
2019-05-22T08:39:30.753Z,99.90
2019-05-22T08:42:02.089Z,99.90
2019-05-22T08:44:31.382Z,99.90
2019-05-22T08:47:08.015Z,99.90
2019-05-22T08:49:34.966Z,99.90
2019-05-22T08:52:04.908Z,99.90
2019-05-22T08:54:36.582Z,99.90
2019-05-22T08:57:09.301Z,99.90
2019-05-22T08:59:41.451Z,99.90
2019-05-22T09:02:16.357Z,99.90
2019-05-22T09:04:57.481Z,99.90
2019-05-22T09:07:22.422Z,99.90
2019-05-22T09:09:48.791Z,99.90
2019-05-22T09:12:19.757Z,99.90
2019-05-22T09:14:53.293Z,99.90
2019-05-22T09:17:24.031Z,99.90
2019-05-22T09:19:55.359Z,99.90
2019-05-22T09:22:39.540Z,99.90
2019-05-22T09:25:01.659Z,99.90
2019-05-22T09:27:30.575Z,99.90
2019-05-22T09:30:00.985Z,99.90
2019-05-22T09:32:31.509Z,99.90
2019-05-22T09:35:10.130Z,99.90
2019-05-22T09:37:45.493Z,99.90
2019-05-22T09:41:56.034Z,99.90
2019-05-22T09:42:58.897Z,99.90
2019-05-22T09:46:03.308Z,99.90
2019-05-22T09:48:23.644Z,99.90
2019-05-22T09:51:02.349Z,99.90
2019-05-22T09:53:29.124Z,99.90
2019-05-22T09:56:00.078Z,99.90
2019-05-22T09:58:30.340Z,99.90
2019-05-22T10:01:12.118Z,99.90
2019-05-22T10:03:37.810Z,99.90
2019-05-22T10:06:24.883Z,99.90
2019-05-22T10:08:54.417Z,99.90
2019-05-22T10:11:25.266Z,99.90
2019-05-22T10:17:42.886Z,99.90
2019-05-22T10:19:30.124Z,99.90
2019-05-22T10:22:10.506Z,99.90
2019-05-22T10:25:11.803Z,99.90
2019-05-22T10:27:17.833Z,99.90
2019-05-22T10:29:49.285Z,99.90
2019-05-22T10:32:24.093Z,99.90
2019-05-22T10:34:57.640Z,99.90
2019-05-22T10:40:23.379Z,99.90
2019-05-22T10:42:54.279Z,99.90
2019-05-22T10:45:24.372Z,99.90
2019-05-22T10:48:00.139Z,99.90
2019-05-22T10:50:34.713Z,99.90
2019-05-22T10:53:33.882Z,99.90
2019-05-22T10:56:29.257Z,99.90
2019-05-22T11:04:39.355Z,99.90
2019-05-22T11:07:12.722Z,99.90
2019-05-22T11:10:36.686Z,99.90
2019-05-22T11:12:38.582Z,99.90
2019-05-22T11:18:32.322Z,99.90
2019-05-22T11:21:12.734Z,99.90
2019-05-22T11:23:31.452Z,99.90
2019-05-22T11:29:20.865Z,99.90
2019-05-22T11:32:00.700Z,99.90
2019-05-22T11:34:52.315Z,99.90
2019-05-22T11:37:03.340Z,99.90
2019-05-22T11:39:39.307Z,99.90
2019-05-22T11:45:28.163Z,99.90
2019-05-22T11:50:50.440Z,99.90
2019-05-22T11:53:33.319Z,99.90
2019-05-22T11:59:13.933Z,99.90
2019-05-22T12:01:56.766Z,99.90
2019-05-22T12:04:19.065Z,99.90
2019-05-22T12:07:02.912Z,99.90
2019-05-22T12:10:31.468Z,99.90
2019-05-22T12:15:28.394Z,99.90
2019-05-22T12:18:07.990Z,99.90
2019-05-22T12:20:42.472Z,99.90
2019-05-22T12:23:26.122Z,99.90
2019-05-22T12:25:48.076Z,99.90
2019-05-22T12:28:25.180Z,99.90
2019-05-22T12:30:50.921Z,99.90
2019-05-22T12:33:29.524Z,99.90
2019-05-22T12:36:22.455Z,99.90
2019-05-22T12:38:36.967Z,99.90
2019-05-22T12:41:07.758Z,99.90
2019-05-22T12:43:44.990Z,99.90
2019-05-22T12:46:16.650Z,99.90
2019-05-22T12:48:47.157Z,99.90
2019-05-22T12:51:22.967Z,99.90
2019-05-22T12:53:57.441Z,99.90
2019-05-22T12:56:31.528Z,99.90
2019-05-22T12:59:36.140Z,99.90
2019-05-22T13:02:21.441Z,99.90
2019-05-22T13:04:56.744Z,99.90
2019-05-22T13:07:28.291Z,99.90
2019-05-22T13:10:18.323Z,99.90
2019-05-22T13:12:42.503Z,99.90
2019-05-22T13:15:14.467Z,99.90
2019-05-22T13:17:52.754Z,99.90
2019-05-22T13:20:45.378Z,99.90
2019-05-22T13:23:24.380Z,99.90
2019-05-22T13:26:16.004Z,99.90
2019-05-22T13:29:10.933Z,99.90
2019-05-22T13:31:45.535Z,99.90
2019-05-22T13:34:26.183Z,99.90
2019-05-22T13:37:02.094Z,99.90
2019-05-22T13:40:02.908Z,99.90
2019-05-22T13:42:07.897Z,99.90
2019-05-22T13:44:34.915Z,99.90
2019-05-22T13:47:06.017Z,99.90
2019-05-22T13:49:47.145Z,99.90
2019-05-22T13:52:37.345Z,99.90
2019-05-22T13:55:10.885Z,99.90
2019-05-22T13:57:45.806Z,99.90
2019-05-22T14:03:05.756Z,99.90
2019-05-22T14:08:12.118Z,99.90
2019-05-22T14:10:45.376Z,99.90
2019-05-22T14:13:20.072Z,99.90
2019-05-22T14:15:56.529Z,99.90
2019-05-22T14:18:31.132Z,99.90
2019-05-22T14:21:01.888Z,99.90
2019-05-22T14:23:35.679Z,99.90
2019-05-22T14:26:14.893Z,99.90
2019-05-22T14:29:00.201Z,99.90
2019-05-22T14:31:40.066Z,99.90
2019-05-22T14:34:16.731Z,99.90
2019-05-22T14:36:51.142Z,99.90
2019-05-22T14:39:29.681Z,99.90
2019-05-22T14:42:20.841Z,99.90
2019-05-22T14:44:38.554Z,99.90
2019-05-22T14:47:17.651Z,99.90
2019-05-22T14:49:47.071Z,99.90
2019-05-22T14:52:25.185Z,99.90
2019-05-22T14:56:00.097Z,99.90
2019-05-22T14:59:44.589Z,99.90
2019-05-22T15:02:27.854Z,99.90
2019-05-22T15:03:36.481Z,99.40
2019-05-22T15:06:10.447Z,98.30
2019-05-22T15:08:39.717Z,99.40
2019-05-22T15:11:12.791Z,96.80
2019-05-22T15:13:51.765Z,98.40
2019-05-22T15:16:29.634Z,99.60
2019-05-22T15:19:07.571Z,97.10
2019-05-22T15:21:35.235Z,98.70
2019-05-22T15:24:10.308Z,97.20
2019-05-22T15:26:43.517Z,99.90
2019-05-22T15:29:14.332Z,98.10
2019-05-22T15:31:44.179Z,97.40
2019-05-22T15:34:14.712Z,96.60
2019-05-22T15:36:49.729Z,95.30
2019-05-22T15:39:24.500Z,97.60
2019-05-22T15:41:56.833Z,97.50
2019-05-22T15:44:34.294Z,96.80
2019-05-22T15:47:18.847Z,97.00
2019-05-22T15:49:40.094Z,97.90
2019-05-22T15:52:13.677Z,98.60
2019-05-22T15:54:43.958Z,98.40
2019-05-22T15:57:14.374Z,96.90
2019-05-22T15:59:46.845Z,96.00
2019-05-22T16:02:21.960Z,97.80
2019-05-22T16:04:54.588Z,97.20
2019-05-22T16:07:29.291Z,96.80
2019-05-22T16:09:58.681Z,97.00
2019-05-22T16:12:30.007Z,98.80
2019-05-22T16:15:03.387Z,99.80
2019-05-22T16:17:34.486Z,98.10
2019-05-22T16:20:11.599Z,98.10
2019-05-22T16:22:38.929Z,97.30
2019-05-22T16:25:09.918Z,98.10
2019-05-22T16:27:43.756Z,97.50
2019-05-22T16:30:14.362Z,97.90
2019-05-22T16:32:44.193Z,96.20
2019-05-22T16:35:13.693Z,96.30
2019-05-22T16:37:42.670Z,97.00
2019-05-22T16:40:12.983Z,99.00
2019-05-22T16:42:42.689Z,97.40
2019-05-22T16:45:11.967Z,96.50
2019-05-22T16:47:41.864Z,98.30
2019-05-22T16:50:12.595Z,98.20
2019-05-22T16:52:44.869Z,97.40
2019-05-22T16:55:15.414Z,97.70
2019-05-22T16:57:47.160Z,93.60
2019-05-22T17:00:16.731Z,96.30
2019-05-22T17:02:46.363Z,96.90
2019-05-22T17:05:15.396Z,96.60
2019-05-22T17:07:45.028Z,97.30
2019-05-22T17:10:15.412Z,97.40
2019-05-22T17:12:44.812Z,96.70
2019-05-22T17:15:19.458Z,98.70
2019-05-22T17:17:48.910Z,96.40
2019-05-22T17:20:20.434Z,98.00
2019-05-22T17:22:49.507Z,98.10
2019-05-22T17:25:20.913Z,98.20
2019-05-22T17:27:50.337Z,98.10
2019-05-22T17:30:21.935Z,99.30
2019-05-22T17:32:51.061Z,98.80
2019-05-22T17:35:20.878Z,99.30
2019-05-22T17:37:50.081Z,98.90
2019-05-22T17:40:20.865Z,99.90
2019-05-22T17:42:52.866Z,99.80
2019-05-22T17:45:25.888Z,99.90
2019-05-22T17:47:55.592Z,99.90
2019-05-22T17:50:27.694Z,99.90
2019-05-22T17:52:57.087Z,99.80
2019-05-22T17:55:27.274Z,99.90
2019-05-22T17:57:56.263Z,99.90
2019-05-22T18:00:32.773Z,99.90
2019-05-22T18:03:02.418Z,98.70
2019-05-22T18:05:32.134Z,99.90
2019-05-22T18:08:01.043Z,99.90
2019-05-22T18:10:32.620Z,99.90
2019-05-22T18:13:01.940Z,99.90
2019-05-22T18:15:31.109Z,99.90
2019-05-22T18:17:59.901Z,99.90
2019-05-22T18:20:41.894Z,99.90
2019-05-22T18:23:00.022Z,99.90
2019-05-22T18:25:29.382Z,99.90
2019-05-22T18:27:58.431Z,99.90
2019-05-22T18:30:29.426Z,99.90
2019-05-22T18:32:57.914Z,99.90
2019-05-22T18:35:27.269Z,99.90
2019-05-22T18:37:56.308Z,99.90
2019-05-22T18:40:25.367Z,99.90
2019-05-22T18:42:57.185Z,99.90
2019-05-22T18:45:27.332Z,99.90
2019-05-22T18:47:56.482Z,99.90
2019-05-22T18:50:26.268Z,99.90
2019-05-22T18:52:55.252Z,99.90
2019-05-22T18:55:24.389Z,99.90
2019-05-22T18:57:53.386Z,99.90
2019-05-22T19:00:24.000Z,99.90
2019-05-22T19:02:53.402Z,99.90
2019-05-22T19:05:25.974Z,99.90
2019-05-22T19:07:56.033Z,99.90
2019-05-22T19:10:25.275Z,99.90
2019-05-22T19:12:53.880Z,99.90
2019-05-22T19:15:23.199Z,99.90
2019-05-22T19:17:52.276Z,99.90
2019-05-22T19:20:21.993Z,99.90
2019-05-22T19:23:00.406Z,99.90
2019-05-22T19:25:21.688Z,99.90
2019-05-22T19:27:50.738Z,99.90
2019-05-22T19:30:21.266Z,99.90
2019-05-22T19:32:51.358Z,99.90
2019-05-22T19:35:20.452Z,99.90
2019-05-22T19:37:50.651Z,99.90
2019-05-22T19:40:19.333Z,99.90
2019-05-22T19:42:48.724Z,99.90
2019-05-22T19:45:19.567Z,99.90
2019-05-22T19:47:55.039Z,99.90
2019-05-22T19:50:25.805Z,99.90
2019-05-22T19:52:55.594Z,99.90
2019-05-22T19:55:26.479Z,99.90
2019-05-22T19:57:55.851Z,99.90
2019-05-22T20:00:25.159Z,99.90
2019-05-22T20:02:56.499Z,99.90
2019-05-22T20:05:25.983Z,99.90
2019-05-22T20:07:54.536Z,99.90
2019-05-22T20:10:24.181Z,99.90
2019-05-22T20:12:53.237Z,99.90
2019-05-22T20:15:23.387Z,99.90
2019-05-22T20:17:52.481Z,99.90
2019-05-22T20:20:23.607Z,99.90
2019-05-22T20:22:52.197Z,99.90
2019-05-22T20:25:22.501Z,99.90
2019-05-22T20:27:51.815Z,99.90
2019-05-22T20:30:23.318Z,99.90
2019-05-22T20:32:52.315Z,99.90
2019-05-22T20:35:20.811Z,99.90
2019-05-22T20:37:49.859Z,99.90
2019-05-22T20:40:39.262Z,99.90
2019-05-22T20:43:09.320Z,99.90
2019-05-22T20:45:41.471Z,99.90
2019-05-22T20:48:13.624Z,99.90
2019-05-22T20:50:43.713Z,99.90
2019-05-22T20:53:14.796Z,99.90
2019-05-22T20:55:44.181Z,99.90
2019-05-22T20:58:14.821Z,99.90
2019-05-22T21:00:44.066Z,99.90
2019-05-22T21:03:13.681Z,99.90
2019-05-22T21:05:43.417Z,99.90
2019-05-22T21:08:13.904Z,99.90
2019-05-22T21:11:01.173Z,99.90
2019-05-22T21:13:31.304Z,99.90
2019-05-22T21:16:00.367Z,99.90
2019-05-22T21:18:30.815Z,99.90
2019-05-22T21:21:00.859Z,99.90
2019-05-22T21:23:30.002Z,99.90
2019-05-22T21:25:59.459Z,99.90
2019-05-22T21:28:28.519Z,99.90
2019-05-22T21:30:58.177Z,99.90
2019-05-22T21:33:27.219Z,99.90
2019-05-22T21:35:56.400Z,99.90
2019-05-22T21:38:26.935Z,99.90
2019-05-22T21:40:56.874Z,99.90
2019-05-22T21:43:26.444Z,99.90
2019-05-22T21:45:55.541Z,99.90
2019-05-22T21:48:24.534Z,99.90
2019-05-22T21:50:53.924Z,99.90
2019-05-22T21:53:22.354Z,99.90
2019-05-22T21:56:03.544Z,99.90
2019-05-22T21:58:22.361Z,99.90
2019-05-22T22:00:57.110Z,99.90
2019-05-22T22:03:29.230Z,99.90
2019-05-22T22:05:58.955Z,99.90
2019-05-22T22:08:28.301Z,99.90
2019-05-22T22:10:57.642Z,99.90
2019-05-22T22:13:27.586Z,99.90
2019-05-22T22:15:57.140Z,99.90
2019-05-22T22:18:27.090Z,99.90
2019-05-22T22:20:57.181Z,99.90
2019-05-22T22:23:25.789Z,99.90
2019-05-22T22:25:55.035Z,99.90
2019-05-22T22:28:25.630Z,99.90
2019-05-22T22:31:06.395Z,99.90
2019-05-22T22:33:37.425Z,99.90
2019-05-22T22:36:08.544Z,99.90
2019-05-22T22:38:38.704Z,99.90
2019-05-22T22:41:10.011Z,99.90
2019-05-22T22:43:41.351Z,99.90
2019-05-22T22:46:16.935Z,99.90
2019-05-22T22:48:47.090Z,99.90
2019-05-22T22:51:17.021Z,99.90
2019-05-22T22:53:46.104Z,99.90
2019-05-22T22:56:15.759Z,99.90
2019-05-22T22:58:46.191Z,99.90
2019-05-22T23:01:21.769Z,99.90
2019-05-22T23:03:51.428Z,99.90
2019-05-22T23:06:20.662Z,99.90
2019-05-22T23:08:50.745Z,99.90
2019-05-22T23:11:19.728Z,99.90
2019-05-22T23:13:50.165Z,99.90
2019-05-22T23:16:20.801Z,99.90
2019-05-22T23:19:09.780Z,99.90
2019-05-22T23:21:38.379Z,99.90
2019-05-22T23:24:07.685Z,99.90
2019-05-22T23:26:37.002Z,99.90
2019-05-22T23:29:07.422Z,99.90
2019-05-22T23:31:37.993Z,99.90
2019-05-22T23:34:08.076Z,99.90
2019-05-22T23:36:38.363Z,99.90
2019-05-22T23:39:15.672Z,99.90
2019-05-22T23:41:45.712Z,99.90
2019-05-22T23:44:17.970Z,99.90
2019-05-22T23:46:46.963Z,99.90
2019-05-22T23:49:17.210Z,99.90
2019-05-22T23:51:47.319Z,99.90
2019-05-22T23:54:16.923Z,99.90
2019-05-22T23:56:46.254Z,99.90
2019-05-22T23:59:17.309Z,99.90
